Date,TemperatureHighF,TemperatureAvgF,TemperatureLowF,DewpointHighF,DewpointAvgF,DewpointLowF,HumidityHigh,HumidityAvg,HumidityLow,PressureMaxIn,PressureMinIn,WindSpeedMaxMPH,WindSpeedAvgMPH,GustSpeedMaxMPH,PrecipitationSumIn
2013-3-1,27.6,26.5,25.5,24.0,22.8,21.0,89,86,81,30.21,30.06,11,5,17,0.00
2013-3-2,28.5,23.7,18.5,20.0,17.7,13.0,83,78,70,30.21,30.16,8,3,11,0.05
2013-3-3,28.3,21.9,14.4,17.0,14.0,11.0,85,72,54,30.16,30.10,5,2,8,0.07
2013-3-4,33.1,27.0,17.3,28.0,21.3,12.0,86,79,70,30.16,30.06,5,1,10,0.10
2013-3-5,33.1,32.2,29.3,28.0,27.6,27.0,93,83,77,30.05,29.93,5,2,10,0.00
2013-3-9,33.8,33.8,33.6,31.0,30.6,30.0,88,87,86,30.30,30.28,3,2,9,0.00
2013-3-11,38.4,35.3,32.5,38.0,34.5,30.0,98,96,90,29.72,29.49,3,1,11,0.12
2013-3-12,35.0,31.1,26.8,30.0,26.0,23.0,91,81,64,29.97,29.72,8,2,11,0.01
2013-3-13,32.7,27.2,21.3,22.0,14.4,9.0,83,60,37,30.30,29.97,10,4,17,0.00
2013-3-14,37.1,29.8,21.8,29.0,19.9,13.0,91,68,44,30.30,30.06,7,2,11,0.00
2013-3-15,37.8,32.9,30.5,33.0,30.4,28.0,96,90,78,30.06,29.82,8,2,14,0.03
2013-3-16,31.8,29.2,26.2,30.0,25.5,21.0,95,86,73,30.13,29.79,10,3,16,0.01
2013-3-17,31.1,28.4,24.0,26.0,20.4,16.0,80,72,63,30.27,30.05,7,2,12,0.00
2013-3-18,34.7,30.7,21.6,33.0,27.4,15.0,95,87,73,30.04,29.57,13,2,16,0.01
2013-3-19,31.6,22.8,15.7,15.0,12.9,10.0,80,67,47,30.03,29.70,10,4,20,0.00
2013-3-20,22.7,18.3,13.4,12.0,6.3,3.0,64,60,54,30.05,30.01,11,4,15,0.00
2013-3-21,30.5,21.3,14.1,16.0,10.8,6.0,73,65,53,30.05,30.01,9,3,11,0.00
2013-3-22,33.4,26.7,19.2,22.0,17.6,12.0,81,69,60,30.09,30.02,4,1,7,0.01
2013-3-23,36.7,30.8,23.8,30.0,23.9,19.0,82,76,59,30.16,30.07,5,2,10,0.00
2013-3-24,36.2,33.8,32.2,31.0,28.6,25.0,91,81,75,30.06,29.74,14,5,20,0.00
2013-3-25,35.9,33.0,30.6,30.0,27.9,26.0,90,81,70,30.07,29.75,15,5,19,0.00
2013-3-26,40.9,36.6,31.7,32.0,28.1,26.0,80,72,64,30.22,30.08,6,2,9,0.00
2013-3-27,44.3,38.5,33.5,28.0,24.4,21.0,73,58,41,30.29,30.23,6,2,9,0.00
2013-3-28,41.7,36.9,30.9,31.0,25.7,22.0,76,64,56,30.34,30.28,4,1,7,0.00
2013-3-29,48.1,37.8,33.0,32.0,25.5,22.0,72,62,36,30.31,30.24,5,1,7,0.00
2013-3-30,55.3,44.3,32.8,43.0,32.3,23.0,87,64,42,30.24,29.80,10,3,13,0.01
2013-3-31,54.1,44.0,35.1,43.0,36.6,21.0,92,77,49,29.86,29.66,10,3,20,0.01